Weather at Cadjehoun Airport

Public forecast

Using degrees Celsius for public forecast. Weather courtesy of forecast.io.

Current aviation weather report (METAR) for Cadjehoun Airport

Report is more than 6 hours old.

2022/11/14 15:00 (retrieved 2 years ago)

DBBB 141500Z 20009KT 9999 SCT012 FEW020CB 31/25 Q1010 TEMPO TS

Aviation forecast (TAF) for Cadjehoun Airport

Forecast is more than 12 hours old.

2023/02/22 18:27 (retrieved 1 year ago)

TAF TAF DBBB 221700Z 2218/2324 22010KT 3000 DU NSC PROB40 2222/2304 6000 NSW